Time;durP1;ratioP1;P1;durP2;ratioP2;P2;SDS_P1;SDS_P2;PMS_P1;PMS_P2;Temp;Humidity;BMP_temperature;BMP_pressure;BME280_temperature;BME280_humidity;BME280_pressure;Samples;Min_cycle;Max_cycle;Signal;HPM_P1;HPM_P2
2022/10/10 00:00:30;;;;;;;4.47;4.07;;;8.10;99.90;;;;;;5052566;28;20053;-81
2022/10/10 00:02:56;;;;;;;5.95;5.28;;;8.00;99.90;;;;;;5084619;28;20465;-81
2022/10/10 00:05:21;;;;;;;5.65;4.50;;;8.10;99.90;;;;;;5052235;28;20129;-81
2022/10/10 00:07:47;;;;;;;6.18;5.05;;;8.00;99.90;;;;;;5084693;28;20091;-81
2022/10/10 00:10:13;;;;;;;5.97;4.20;;;8.00;99.90;;;;;;5051646;28;20045;-81
2022/10/10 00:12:38;;;;;;;4.53;4.13;;;8.10;99.90;;;;;;5052868;28;20494;-81
2022/10/10 00:15:05;;;;;;;5.00;4.50;;;8.00;99.90;;;;;;5084753;28;20041;-82
2022/10/10 00:17:30;;;;;;;5.50;4.40;;;8.00;99.90;;;;;;5052603;28;20048;-81
2022/10/10 00:19:56;;;;;;;8.10;4.70;;;8.00;99.90;;;;;;5052170;28;20466;-81
2022/10/10 00:22:22;;;;;;;5.15;4.45;;;7.90;99.90;;;;;;5052027;28;20115;-81
2022/10/10 00:24:47;;;;;;;4.35;3.83;;;7.90;99.90;;;;;;5052083;28;20076;-81
2022/10/10 00:27:13;;;;;;;5.80;4.85;;;7.90;99.90;;;;;;5052286;28;20051;-81
2022/10/10 00:29:39;;;;;;;5.55;4.90;;;7.80;99.90;;;;;;5050924;28;20558;-82
2022/10/10 00:32:04;;;;;;;7.15;4.80;;;7.80;99.90;;;;;;5052365;28;20045;-81
2022/10/10 00:34:30;;;;;;;6.53;4.88;;;7.70;99.90;;;;;;5051928;28;20037;-81
2022/10/10 00:36:56;;;;;;;4.72;4.28;;;7.70;99.90;;;;;;5051954;28;20084;-81
2022/10/10 00:39:21;;;;;;;4.97;4.53;;;7.70;99.90;;;;;;5052115;28;20044;-80
2022/10/10 00:41:47;;;;;;;4.78;3.92;;;7.70;99.90;;;;;;5051936;28;20037;-81
2022/10/10 00:44:14;;;;;;;6.78;4.80;;;7.60;99.90;;;;;;5051901;28;20045;-80
2022/10/10 00:46:40;;;;;;;5.07;4.55;;;7.60;99.90;;;;;;5052474;28;20041;-81
2022/10/10 00:49:28;;;;;;;4.38;4.00;;;7.70;99.90;;;;;;5051810;28;20072;-80
2022/10/10 00:51:58;;;;;;;5.82;4.47;;;7.50;99.90;;;;;;5051840;28;20064;-81
2022/10/10 00:54:26;;;;;;;4.70;4.18;;;7.50;99.90;;;;;;5051611;28;20467;-81
2022/10/10 00:56:56;;;;;;;5.93;4.05;;;7.50;99.90;;;;;;5051881;28;20052;-80
2022/10/10 00:59:24;;;;;;;6.93;4.18;;;7.40;99.90;;;;;;5051435;28;20507;-80
2022/10/10 01:01:51;;;;;;;6.38;4.35;;;7.40;99.90;;;;;;5051676;28;20148;-81
2022/10/10 01:04:38;;;;;;;7.53;4.65;;;7.40;99.90;;;;;;5051790;28;20128;-80
2022/10/10 01:07:07;;;;;;;6.65;4.50;;;7.40;99.90;;;;;;5052539;28;20177;-81
2022/10/10 01:09:36;;;;;;;4.88;4.20;;;7.30;99.90;;;;;;5052023;28;20075;-81
2022/10/10 01:12:07;;;;;;;4.53;4.13;;;7.40;99.90;;;;;;5051773;28;20505;-81
2022/10/10 01:14:45;;;;;;;6.43;4.07;;;7.30;99.90;;;;;;5052249;28;20049;-81
2022/10/10 01:17:31;;;;;;;4.63;4.07;;;7.30;99.90;;;;;;5052209;28;20459;-81
2022/10/10 01:20:18;;;;;;;9.90;4.05;;;7.30;99.90;;;;;;5056029;28;20123;-81
2022/10/10 01:22:47;;;;;;;6.43;4.82;;;7.30;99.90;;;;;;5055966;28;20048;-81
2022/10/10 01:25:30;;;;;;;4.57;3.92;;;7.30;99.90;;;;;;5055808;28;20076;-81
2022/10/10 01:28:06;;;;;;;4.72;4.10;;;7.30;99.90;;;;;;5055629;28;20056;-81
2022/10/10 01:30:34;;;;;;;5.60;4.68;;;7.30;99.90;;;;;;5056005;28;20493;-80
2022/10/10 01:33:13;;;;;;;4.93;3.72;;;7.40;99.90;;;;;;5055815;28;20056;-81
2022/10/10 01:35:54;;;;;;;4.80;4.18;;;7.40;99.90;;;;;;5055522;28;20056;-81
2022/10/10 01:38:34;;;;;;;6.50;4.78;;;7.40;99.90;;;;;;5056106;28;20124;-81
2022/10/10 01:41:12;;;;;;;5.35;3.90;;;7.40;99.90;;;;;;5055768;28;20049;-81
2022/10/10 01:43:38;;;;;;;5.20;4.10;;;7.50;99.90;;;;;;5055851;28;20053;-81
2022/10/10 01:46:10;;;;;;;6.22;4.88;;;7.50;99.90;;;;;;5055777;28;20429;-82
2022/10/10 01:48:36;;;;;;;4.82;4.40;;;7.50;99.90;;;;;;5055318;28;20063;-81
2022/10/10 01:51:08;;;;;;;5.22;4.10;;;7.60;99.90;;;;;;5055167;28;20067;-81
2022/10/10 01:53:52;;;;;;;4.63;4.13;;;7.60;99.90;;;;;;5055274;28;20053;-80
2022/10/10 01:56:34;;;;;;;6.75;4.35;;;7.60;99.90;;;;;;5055179;28;20045;-81
2022/10/10 01:59:32;;;;;;;6.13;4.70;;;7.70;99.90;;;;;;5087842;28;20367;-81
2022/10/10 02:02:31;;;;;;;5.75;4.68;;;7.70;99.90;;;;;;5055284;28;20128;-81
2022/10/10 02:05:23;;;;;;;7.05;4.60;;;7.70;99.90;;;;;;5055507;28;20041;-81
2022/10/10 02:07:58;;;;;;;8.63;4.20;;;7.70;99.90;;;;;;5054594;28;20072;-81
2022/10/10 02:10:29;;;;;;;4.57;4.07;;;7.80;99.90;;;;;;5055173;28;20080;-81
2022/10/10 02:12:57;;;;;;;6.88;4.65;;;7.80;99.90;;;;;;5054211;28;20040;-81
2022/10/10 02:15:27;;;;;;;5.70;4.35;;;7.80;99.90;;;;;;5054819;28;20052;-81
2022/10/10 02:17:56;;;;;;;4.80;3.80;;;7.80;99.90;;;;;;5055008;28;20080;-81
2022/10/10 02:20:25;;;;;;;5.05;3.97;;;7.80;99.90;;;;;;5054694;28;20056;-81
2022/10/10 02:22:52;;;;;;;6.72;4.22;;;7.80;99.90;;;;;;5054393;28;20469;-81
2022/10/10 02:25:25;;;;;;;5.93;3.75;;;7.80;99.90;;;;;;5053853;28;20387;-81
2022/10/10 02:28:14;;;;;;;5.85;4.22;;;7.80;99.90;;;;;;5054938;28;20524;-81
2022/10/10 02:30:44;;;;;;;5.72;4.38;;;7.80;99.90;;;;;;5054133;28;20049;-81
2022/10/10 02:33:15;;;;;;;4.65;3.90;;;7.70;99.90;;;;;;5054415;28;20071;-80
2022/10/10 02:35:44;;;;;;;7.93;4.43;;;7.70;99.90;;;;;;5054347;28;20077;-81
2022/10/10 02:38:13;;;;;;;5.75;5.15;;;7.70;99.90;;;;;;5054356;28;20044;-81
2022/10/10 02:40:41;;;;;;;5.85;3.90;;;7.80;99.90;;;;;;5054218;28;20137;-81
2022/10/10 02:43:09;;;;;;;5.50;4.20;;;7.80;99.90;;;;;;5054259;28;20055;-81
2022/10/10 02:45:37;;;;;;;6.78;4.57;;;7.80;99.90;;;;;;5070010;28;20088;-81
2022/10/10 02:48:03;;;;;;;6.07;5.05;;;7.80;99.90;;;;;;5054620;28;20375;-81
2022/10/10 02:50:30;;;;;;;5.85;4.90;;;7.80;99.90;;;;;;5055576;28;20057;-81
2022/10/10 02:52:57;;;;;;;5.25;4.10;;;7.90;99.90;;;;;;5056432;28;20139;-81
2022/10/10 02:55:22;;;;;;;6.38;5.00;;;7.90;99.90;;;;;;5055127;28;20033;-81
2022/10/10 02:57:48;;;;;;;5.13;3.67;;;8.00;99.90;;;;;;5053902;28;20052;-81
2022/10/10 03:00:14;;;;;;;6.57;4.57;;;8.00;99.90;;;;;;5053384;28;20116;-80
2022/10/10 03:02:40;;;;;;;5.75;4.32;;;8.00;99.90;;;;;;5053667;28;20048;-81
2022/10/10 03:05:06;;;;;;;6.47;4.28;;;8.00;99.90;;;;;;5053722;28;20041;-81
2022/10/10 03:07:32;;;;;;;4.93;4.25;;;8.00;99.90;;;;;;5053779;28;20091;-80
2022/10/10 03:09:58;;;;;;;4.88;4.10;;;8.00;99.90;;;;;;5054339;28;20143;-81
2022/10/10 03:12:23;;;;;;;5.50;5.00;;;8.00;99.90;;;;;;5053557;28;20416;-81
2022/10/10 03:14:49;;;;;;;7.05;5.00;;;8.00;99.90;;;;;;5053744;28;20544;-81
2022/10/10 03:17:15;;;;;;;8.57;5.10;;;8.00;99.90;;;;;;5086409;28;20049;-81
2022/10/10 03:19:40;;;;;;;6.95;4.32;;;8.00;99.90;;;;;;5053947;28;20044;-81
2022/10/10 03:22:06;;;;;;;6.80;4.57;;;8.00;99.90;;;;;;5053516;28;20102;-81
2022/10/10 03:24:32;;;;;;;5.97;4.60;;;8.00;99.90;;;;;;5054042;28;20094;-81
2022/10/10 03:26:57;;;;;;;6.40;4.55;;;8.00;99.90;;;;;;5053678;28;20041;-81
2022/10/10 03:29:23;;;;;;;10.07;5.20;;;8.00;99.90;;;;;;5085542;28;20067;-81
2022/10/10 03:31:49;;;;;;;6.55;4.70;;;8.00;99.90;;;;;;5053854;28;20041;-81
2022/10/10 03:34:14;;;;;;;7.20;4.85;;;8.00;99.90;;;;;;5053237;28;20566;-81
2022/10/10 03:36:40;;;;;;;6.30;5.05;;;8.00;99.90;;;;;;5053075;28;20078;-81
2022/10/10 03:39:08;;;;;;;6.55;4.03;;;8.00;99.90;;;;;;5053498;28;20049;-80
2022/10/10 03:41:34;;;;;;;6.00;4.85;;;8.00;99.90;;;;;;5052383;28;20109;-81
2022/10/10 03:43:59;;;;;;;8.75;5.57;;;8.00;99.90;;;;;;5053201;28;20132;-81
2022/10/10 03:46:25;;;;;;;5.97;4.65;;;8.00;99.90;;;;;;5053471;28;20055;-81
2022/10/10 03:48:51;;;;;;;7.55;5.30;;;8.00;99.90;;;;;;5053229;28;20048;-80
2022/10/10 03:51:16;;;;;;;5.72;4.95;;;8.00;99.90;;;;;;5051560;28;20053;-81
2022/10/10 03:53:42;;;;;;;7.00;5.00;;;8.00;99.90;;;;;;5052904;28;20049;-81
2022/10/10 03:56:08;;;;;;;4.82;4.38;;;8.00;99.90;;;;;;5052868;28;20256;-81
2022/10/10 03:58:33;;;;;;;7.30;5.47;;;8.00;99.90;;;;;;5052805;28;20073;-81
2022/10/10 04:01:01;;;;;;;5.53;5.00;;;8.00;99.90;;;;;;5053402;28;20044;-81
2022/10/10 04:03:28;;;;;;;8.90;5.65;;;8.00;99.90;;;;;;5053102;28;20045;-81
2022/10/10 04:05:54;;;;;;;8.25;5.97;;;8.00;99.90;;;;;;5052729;28;20041;-81
2022/10/10 04:08:20;;;;;;;6.28;5.55;;;8.00;99.90;;;;;;5053232;28;20063;-81
2022/10/10 04:10:50;;;;;;;6.45;5.47;;;8.00;99.90;;;;;;5052984;28;20448;-81
2022/10/10 04:13:16;;;;;;;7.32;5.30;;;8.00;99.90;;;;;;5052691;28;20049;-80
2022/10/10 04:15:41;;;;;;;5.93;4.80;;;8.00;99.90;;;;;;5084876;28;20060;-81
2022/10/10 04:18:07;;;;;;;8.30;6.22;;;8.00;99.90;;;;;;5052758;28;20516;-81
2022/10/10 04:20:33;;;;;;;7.13;5.15;;;8.00;99.90;;;;;;5052827;28;20466;-81
2022/10/10 04:22:58;;;;;;;8.95;5.43;;;8.00;99.90;;;;;;5052306;28;20053;-81
2022/10/10 04:25:24;;;;;;;8.77;4.78;;;8.00;99.90;;;;;;5051144;28;20055;-81
2022/10/10 04:27:50;;;;;;;8.00;5.97;;;7.90;99.90;;;;;;5052409;28;20080;-81
2022/10/10 04:30:16;;;;;;;6.78;5.22;;;7.90;99.90;;;;;;5052345;28;20548;-82
2022/10/10 04:32:41;;;;;;;8.35;5.47;;;7.90;99.90;;;;;;5052857;28;20052;-81
2022/10/10 04:35:07;;;;;;;7.75;5.10;;;7.90;99.90;;;;;;5051259;28;20044;-80
2022/10/10 04:37:33;;;;;;;8.25;6.10;;;7.90;99.90;;;;;;5052670;28;20436;-81
2022/10/10 04:39:59;;;;;;;5.40;4.85;;;7.90;99.90;;;;;;5052336;28;20044;-81
2022/10/10 04:42:25;;;;;;;7.70;5.28;;;7.90;99.90;;;;;;5051986;28;20052;-81
2022/10/10 04:44:50;;;;;;;6.00;5.35;;;7.90;99.90;;;;;;5052534;28;20138;-81
2022/10/10 04:47:17;;;;;;;7.38;5.18;;;7.90;99.90;;;;;;5052754;28;20068;-81
2022/10/10 04:49:42;;;;;;;8.30;6.43;;;7.80;99.90;;;;;;5051940;28;20072;-81
2022/10/10 04:52:09;;;;;;;10.88;6.25;;;7.80;99.90;;;;;;5053214;28;20053;-81
2022/10/10 04:54:35;;;;;;;9.90;6.10;;;7.80;99.90;;;;;;5056570;28;20049;-81
2022/10/10 04:57:00;;;;;;;7.70;5.60;;;7.80;99.90;;;;;;5056197;28;20059;-80
2022/10/10 04:59:26;;;;;;;9.25;5.90;;;7.80;99.90;;;;;;5056349;28;20045;-81
2022/10/10 05:01:52;;;;;;;6.88;5.13;;;7.80;99.90;;;;;;5056062;28;20047;-81
2022/10/10 05:04:17;;;;;;;6.85;6.10;;;7.70;99.90;;;;;;5056287;28;20120;-81
2022/10/10 05:06:43;;;;;;;7.03;5.28;;;7.80;99.90;;;;;;5055955;28;20029;-81
2022/10/10 05:09:09;;;;;;;9.60;6.25;;;7.80;99.90;;;;;;5056119;28;20044;-80
2022/10/10 05:11:34;;;;;;;7.50;4.97;;;7.80;99.90;;;;;;5055748;28;20044;-79
2022/10/10 05:14:01;;;;;;;8.90;6.50;;;7.80;99.90;;;;;;5055932;28;20095;-80
2022/10/10 05:16:27;;;;;;;6.93;5.88;;;7.70;99.90;;;;;;5055602;28;20044;-81
2022/10/10 05:18:53;;;;;;;7.38;6.00;;;7.70;99.90;;;;;;5055862;28;20052;-81
2022/10/10 05:21:19;;;;;;;7.20;5.45;;;7.70;99.90;;;;;;5055696;28;20048;-81
2022/10/10 05:23:44;;;;;;;9.02;5.75;;;8.00;99.90;;;;;;5054278;28;20067;-81
2022/10/10 05:26:10;;;;;;;8.18;5.38;;;7.70;99.90;;;;;;5055510;28;20052;-80
2022/10/10 05:28:36;;;;;;;8.63;6.25;;;7.70;99.90;;;;;;5055468;28;20052;-80
2022/10/10 05:31:03;;;;;;;10.35;6.00;;;7.60;99.90;;;;;;5055987;28;20041;-80
2022/10/10 05:33:29;;;;;;;10.88;6.57;;;7.60;99.90;;;;;;5055405;28;20103;-80
2022/10/10 05:36:06;;;;;;;8.20;6.43;;;7.60;99.90;;;;;;5055292;28;20045;-80
2022/10/10 05:38:33;;;;;;;8.40;6.10;;;7.60;99.90;;;;;;5055627;28;20056;-80
2022/10/10 05:40:59;;;;;;;11.07;6.18;;;7.60;99.90;;;;;;5065217;28;20104;-81
2022/10/10 05:43:25;;;;;;;7.70;6.65;;;7.70;99.90;;;;;;5063991;28;20072;-81
2022/10/10 05:45:51;;;;;;;10.07;7.32;;;7.60;99.90;;;;;;5055137;28;20052;-81
2022/10/10 05:48:17;;;;;;;7.70;6.57;;;8.10;99.90;;;;;;5053989;28;20079;-81
2022/10/10 05:50:49;;;;;;;8.82;6.90;;;7.70;99.90;;;;;;5055050;28;20118;-80
2022/10/10 05:53:15;;;;;;;7.28;6.30;;;7.70;99.90;;;;;;5056210;28;20045;-80
2022/10/10 05:55:42;;;;;;;7.00;5.97;;;7.70;99.90;;;;;;5056415;28;20106;-80
2022/10/10 05:58:07;;;;;;;10.70;6.63;;;7.70;99.90;;;;;;5056229;28;20437;-82
2022/10/10 06:00:35;;;;;;;10.68;6.95;;;7.70;99.90;;;;;;5054941;28;20048;-81
2022/10/10 06:03:01;;;;;;;8.88;6.18;;;7.70;99.90;;;;;;5055032;28;20048;-80
2022/10/10 06:05:27;;;;;;;7.45;5.82;;;7.70;99.90;;;;;;5053883;28;20131;-82
2022/10/10 06:07:53;;;;;;;8.63;7.05;;;7.70;99.90;;;;;;5037857;28;20130;-79
2022/10/10 06:10:19;;;;;;;7.75;6.30;;;7.70;99.90;;;;;;5055408;28;20052;-81
2022/10/10 06:12:44;;;;;;;8.00;6.07;;;7.70;99.90;;;;;;5054515;28;20208;-81
2022/10/10 06:15:10;;;;;;;8.15;6.60;;;7.70;99.90;;;;;;5055101;28;20041;-78
2022/10/10 06:17:36;;;;;;;7.88;6.60;;;7.70;99.90;;;;;;5054516;28;20186;-81
2022/10/10 06:20:02;;;;;;;12.52;7.03;;;7.80;99.90;;;;;;5055225;28;20045;-81
2022/10/10 06:22:28;;;;;;;11.70;6.85;;;7.80;99.90;;;;;;5054855;28;20063;-80
2022/10/10 06:24:54;;;;;;;8.52;6.47;;;7.90;99.90;;;;;;5054267;28;20128;-80
2022/10/10 06:27:19;;;;;;;9.38;7.15;;;7.80;99.90;;;;;;5054400;28;20466;-80
2022/10/10 06:29:45;;;;;;;7.10;5.63;;;8.10;99.90;;;;;;5086760;28;20055;-80
2022/10/10 06:32:11;;;;;;;8.55;6.55;;;7.90;99.90;;;;;;5054484;28;20040;-80
2022/10/10 06:34:36;;;;;;;9.50;7.07;;;7.90;99.90;;;;;;5054428;28;20056;-81
2022/10/10 06:37:02;;;;;;;8.63;6.82;;;8.00;99.90;;;;;;5054465;28;20104;-80
2022/10/10 06:39:28;;;;;;;9.10;6.78;;;8.00;99.90;;;;;;5054977;28;20064;-80
2022/10/10 06:41:53;;;;;;;7.72;6.65;;;8.00;99.90;;;;;;5054205;28;20037;-80
2022/10/10 06:44:19;;;;;;;8.32;6.70;;;8.10;99.90;;;;;;5054129;28;20080;-81
2022/10/10 06:46:45;;;;;;;10.95;7.88;;;8.10;99.90;;;;;;5054714;28;20091;-80
2022/10/10 06:49:11;;;;;;;11.85;7.00;;;8.20;99.90;;;;;;5054175;28;20067;-80
2022/10/10 06:51:38;;;;;;;10.50;7.78;;;8.20;99.90;;;;;;5054734;28;20160;-80
2022/10/10 06:54:04;;;;;;;7.45;6.63;;;8.30;99.90;;;;;;5054002;28;20474;-80
2022/10/10 06:56:30;;;;;;;8.10;6.53;;;8.30;99.90;;;;;;5054356;28;20045;-80
2022/10/10 06:58:55;;;;;;;12.75;7.03;;;8.40;99.90;;;;;;5053995;28;20501;-80
2022/10/10 07:01:23;;;;;;;10.07;6.50;;;8.50;99.90;;;;;;5053863;28;20412;-80
2022/10/10 07:03:48;;;;;;;8.13;6.55;;;8.60;99.90;;;;;;5052753;28;20401;-77
2022/10/10 07:06:15;;;;;;;8.00;7.10;;;8.70;99.90;;;;;;5086457;28;20041;-77
2022/10/10 07:08:41;;;;;;;14.20;7.78;;;8.80;99.90;;;;;;5053713;28;20477;-77
2022/10/10 07:11:07;;;;;;;7.72;5.97;;;8.90;99.90;;;;;;5086175;28;20084;-77
2022/10/10 07:13:34;;;;;;;9.65;6.25;;;9.00;99.90;;;;;;5053620;28;20056;-78
2022/10/10 07:16:00;;;;;;;8.38;5.80;;;9.10;99.90;;;;;;5052572;28;20045;-78
2022/10/10 07:18:26;;;;;;;7.82;6.13;;;9.20;99.90;;;;;;5054003;28;20368;-81
2022/10/10 07:20:57;;;;;;;9.07;6.70;;;9.30;99.90;;;;;;5053659;28;20049;-81
2022/10/10 07:23:22;;;;;;;8.38;6.72;;;9.40;99.90;;;;;;5053778;28;20045;-80
2022/10/10 07:25:48;;;;;;;14.68;7.68;;;9.50;99.90;;;;;;5053353;28;20048;-81
2022/10/10 07:28:14;;;;;;;8.90;6.53;;;9.60;99.90;;;;;;5052333;28;20064;-81
2022/10/10 07:30:42;;;;;;;9.18;7.07;;;9.70;99.90;;;;;;5053376;28;20037;-81
2022/10/10 07:33:08;;;;;;;8.73;6.70;;;9.80;99.90;;;;;;5053597;28;20046;-81
2022/10/10 07:35:34;;;;;;;12.30;6.15;;;9.80;99.90;;;;;;5053742;28;20426;-80
2022/10/10 07:38:00;;;;;;;6.80;6.07;;;9.90;99.90;;;;;;5053236;28;20048;-81
2022/10/10 07:40:26;;;;;;;8.27;6.30;;;9.90;99.90;;;;;;5053741;28;20134;-81
2022/10/10 07:42:52;;;;;;;9.85;6.70;;;10.00;99.90;;;;;;5053120;28;20451;-81
2022/10/10 07:45:18;;;;;;;7.25;6.18;;;10.00;99.90;;;;;;5053014;28;20498;-81
2022/10/10 07:47:43;;;;;;;7.43;5.60;;;10.00;99.90;;;;;;5052769;28;20044;-82
2022/10/10 07:50:10;;;;;;;9.00;5.45;;;10.00;99.90;;;;;;5053342;28;20099;-81
2022/10/10 07:52:37;;;;;;;6.93;5.90;;;10.10;99.90;;;;;;5053331;28;20052;-81
2022/10/10 07:55:03;;;;;;;8.93;5.72;;;10.20;99.90;;;;;;5052605;28;20045;-81
2022/10/10 07:57:33;;;;;;;8.02;5.80;;;10.30;99.90;;;;;;5052652;28;20049;-79
2022/10/10 08:00:04;;;;;;;7.93;5.47;;;10.40;99.90;;;;;;5051883;28;20118;-80
2022/10/10 08:02:29;;;;;;;7.00;5.72;;;10.40;99.90;;;;;;5052524;28;20045;-80
2022/10/10 08:04:55;;;;;;;8.88;6.22;;;10.50;99.90;;;;;;5052773;28;20045;-80
2022/10/10 08:07:20;;;;;;;8.00;5.97;;;10.60;99.90;;;;;;5051836;28;20091;-80
2022/10/10 08:09:46;;;;;;;8.65;6.20;;;10.70;99.90;;;;;;5052934;28;20044;-80
2022/10/10 08:12:12;;;;;;;8.50;6.53;;;10.80;99.90;;;;;;5053296;28;20053;-80
2022/10/10 08:14:37;;;;;;;11.82;6.28;;;11.00;99.90;;;;;;5052619;28;20045;-80
2022/10/10 08:17:03;;;;;;;6.85;5.70;;;11.10;99.90;;;;;;5052416;28;20045;-80
2022/10/10 08:19:29;;;;;;;9.00;5.97;;;11.20;99.90;;;;;;5052591;28;20049;-71
2022/10/10 08:21:55;;;;;;;7.72;6.10;;;11.30;99.90;;;;;;5052901;28;20049;-82
2022/10/10 08:24:21;;;;;;;7.28;5.88;;;11.40;99.90;;;;;;5053076;28;20053;-72
2022/10/10 08:26:46;;;;;;;9.23;5.70;;;11.50;99.90;;;;;;5052183;28;20355;-80
2022/10/10 08:29:12;;;;;;;13.48;5.82;;;11.50;99.90;;;;;;5052334;28;20056;-80
2022/10/10 08:31:38;;;;;;;10.50;7.20;;;11.60;99.90;;;;;;5052173;28;20041;-80
2022/10/10 08:34:04;;;;;;;12.60;6.18;;;11.70;99.90;;;;;;5084983;28;20055;-80
2022/10/10 08:36:30;;;;;;;10.15;6.40;;;11.90;99.90;;;;;;5052006;28;20409;-79
2022/10/10 08:38:58;;;;;;;9.10;6.32;;;12.00;99.90;;;;;;5052669;28;20049;-79
2022/10/10 08:41:47;;;;;;;11.20;6.00;;;12.10;99.90;;;;;;5052191;28;20041;-80
2022/10/10 08:44:41;;;;;;;8.27;5.40;;;12.20;99.90;;;;;;5051855;28;20057;-80
2022/10/10 08:47:20;;;;;;;9.10;5.82;;;12.40;99.90;;;;;;5052329;28;20049;-79
2022/10/10 08:49:48;;;;;;;8.60;6.18;;;12.50;99.90;;;;;;5052626;28;20075;-80
2022/10/10 08:52:40;;;;;;;8.10;5.57;;;12.70;99.90;;;;;;5052281;28;20057;-80
2022/10/10 08:55:20;;;;;;;7.60;6.07;;;12.70;99.90;;;;;;5084407;28;20068;-80
2022/10/10 08:58:19;;;;;;;9.38;5.72;;;12.80;99.90;;;;;;5052072;28;20094;-80
2022/10/10 09:00:55;;;;;;;8.23;5.47;;;12.80;99.90;;;;;;5031679;28;20061;-80
2022/10/10 09:03:49;;;;;;;6.95;5.25;;;13.10;99.90;;;;;;5053195;28;20045;-80
2022/10/10 09:06:16;;;;;;;8.27;6.05;;;13.50;99.90;;;;;;5053244;28;20041;-81
2022/10/10 09:08:59;;;;;;;9.90;6.30;;;13.70;99.90;;;;;;5052974;28;20075;-80
2022/10/10 09:11:25;;;;;;;;;;;14.00;99.90;;;;;;5052259;28;20049;-80
2022/10/10 09:14:15;;;;;;;8.35;5.65;;;14.20;99.90;;;;;;5051708;28;19928;-80
2022/10/10 09:17:00;;;;;;;6.40;5.43;;;14.70;99.90;;;;;;5051613;28;20132;-80
2022/10/10 09:19:28;;;;;;;10.57;5.57;;;15.10;99.90;;;;;;5052254;28;20080;-80
2022/10/10 09:21:58;;;;;;;6.82;5.53;;;15.50;99.90;;;;;;5052031;28;20083;-80
2022/10/10 09:24:36;;;;;;;9.20;6.78;;;16.10;99.90;;;;;;5051830;28;20543;-80
2022/10/10 09:27:04;;;;;;;8.88;5.63;;;16.50;99.90;;;;;;5051736;28;20060;-80
2022/10/10 09:29:37;;;;;;;6.60;5.43;;;16.80;99.90;;;;;;5051491;28;20052;-80
2022/10/10 09:32:19;;;;;;;10.40;4.93;;;17.20;99.90;;;;;;5052113;28;20138;-79
2022/10/10 09:34:49;;;;;;;9.32;6.25;;;18.30;99.90;;;;;;5051388;28;20040;-82
2022/10/10 09:37:22;;;;;;;7.15;5.20;;;18.60;99.20;;;;;;5051819;28;20112;-80
2022/10/10 09:39:49;;;;;;;;;;;19.50;99.80;;;;;;5053802;28;20052;-81
2022/10/10 09:42:19;;;;;;;6.25;5.65;;;19.40;97.30;;;;;;5054028;28;19916;-80
2022/10/10 09:44:45;;;;;;;12.18;5.47;;;19.40;99.90;;;;;;5055679;28;20075;-80
2022/10/10 09:47:16;;;;;;;5.90;5.30;;;19.70;99.90;;;;;;5055151;28;20507;-81
2022/10/10 09:49:43;;;;;;;7.03;5.65;;;20.20;99.90;;;;;;5055107;28;20056;-80
2022/10/10 09:52:30;;;;;;;9.10;5.43;;;20.70;99.00;;;;;;5055446;28;20049;-81
2022/10/10 09:54:59;;;;;;;6.15;5.30;;;20.40;98.00;;;;;;5054813;28;20049;-80
2022/10/10 09:57:31;;;;;;;5.55;4.97;;;19.80;97.20;;;;;;5054880;28;20045;-81
2022/10/10 09:59:57;;;;;;;6.35;5.65;;;19.20;98.60;;;;;;5054781;28;20056;-81
2022/10/10 10:02:25;;;;;;;8.60;5.43;;;18.80;99.90;;;;;;5054626;28;20045;-81
2022/10/10 10:04:52;;;;;;;6.90;5.15;;;18.60;99.90;;;;;;5055111;28;20056;-80
2022/10/10 10:07:19;;;;;;;5.97;5.30;;;18.40;99.90;;;;;;5054775;28;20071;-81
2022/10/10 10:09:55;;;;;;;7.03;5.05;;;18.20;99.90;;;;;;5087185;28;20044;-81
2022/10/10 10:12:27;;;;;;;7.03;5.13;;;17.90;99.90;;;;;;5054650;28;20088;-80
2022/10/10 10:15:02;;;;;;;7.38;6.18;;;17.90;99.90;;;;;;5054648;28;20564;-80
2022/10/10 10:17:27;;;;;;;8.05;5.18;;;18.10;99.90;;;;;;5054741;28;20104;-81
2022/10/10 10:19:53;;;;;;;8.25;5.80;;;18.20;99.90;;;;;;5054743;28;20049;-80
2022/10/10 10:22:37;;;;;;;9.60;6.03;;;18.40;99.90;;;;;;5054624;28;20098;-80
2022/10/10 10:25:30;;;;;;;9.82;5.13;;;18.40;98.80;;;;;;5054354;28;20095;-80
2022/10/10 10:28:11;;;;;;;7.22;5.45;;;18.50;99.50;;;;;;5054401;28;20056;-81
2022/10/10 10:30:42;;;;;;;12.18;6.10;;;18.70;99.90;;;;;;5054351;28;20091;-80
2022/10/10 10:33:26;;;;;;;7.43;5.72;;;18.40;99.90;;;;;;5054245;28;20045;-81
2022/10/10 10:36:31;;;;;;;6.97;5.72;;;18.00;99.90;;;;;;5054271;28;20037;-81
2022/10/10 10:39:09;;;;;;;7.78;5.85;;;17.60;99.90;;;;;;4999637;28;20065;-81
2022/10/10 10:41:49;;;;;;;7.38;5.03;;;17.40;99.90;;;;;;5054069;28;20098;-79
2022/10/10 10:44:18;;;;;;;8.65;5.30;;;17.20;99.90;;;;;;5054166;28;20044;-80
2022/10/10 10:46:58;;;;;;;8.68;5.60;;;17.20;99.90;;;;;;5054440;28;20417;-81
2022/10/10 10:49:56;;;;;;;6.75;4.93;;;17.10;99.90;;;;;;5053746;28;20080;-81
2022/10/10 10:52:46;;;;;;;5.63;4.70;;;16.90;99.90;;;;;;5054070;28;20053;-80
2022/10/10 10:55:27;;;;;;;6.13;5.25;;;16.90;99.90;;;;;;5053986;28;20128;-80
2022/10/10 10:58:10;;;;;;;6.85;5.28;;;16.90;99.90;;;;;;5053846;28;20060;-81
2022/10/10 11:01:09;;;;;;;9.85;5.80;;;16.90;99.90;;;;;;5054298;28;20071;-80
2022/10/10 11:03:44;;;;;;;7.55;4.93;;;16.80;99.90;;;;;;5053223;28;20056;-80
2022/10/10 11:06:18;;;;;;;8.75;5.00;;;16.90;99.90;;;;;;5054058;28;20491;-79
2022/10/10 11:09:12;;;;;;;8.20;4.82;;;16.90;99.90;;;;;;5053736;28;20499;-74
2022/10/10 11:11:50;;;;;;;5.90;5.18;;;17.00;99.90;;;;;;5054098;28;20052;-80
2022/10/10 11:14:18;;;;;;;9.48;4.38;;;17.00;99.90;;;;;;5053802;28;20044;-80
2022/10/10 11:16:51;;;;;;;5.82;4.43;;;17.10;99.90;;;;;;5053584;28;20048;-81
2022/10/10 11:19:22;;;;;;;;;;;17.00;99.90;;;;;;5054533;28;20103;-80
2022/10/10 11:22:03;;;;;;;7.35;4.68;;;17.00;99.90;;;;;;5053834;28;19943;-81
2022/10/10 11:24:47;;;;;;;6.55;5.00;;;16.80;99.90;;;;;;5053500;28;20155;-81
2022/10/10 11:27:19;;;;;;;6.90;4.97;;;16.70;99.90;;;;;;5053529;28;20486;-81
2022/10/10 11:30:07;;;;;;;7.18;4.88;;;16.60;99.90;;;;;;5053580;28;20116;-80
2022/10/10 11:32:41;;;;;;;7.63;4.50;;;16.40;99.90;;;;;;5053658;28;20076;-80
2022/10/10 11:35:16;;;;;;;7.88;4.38;;;16.30;99.90;;;;;;5053181;28;20505;-80
2022/10/10 11:37:47;;;;;;;4.95;4.22;;;16.20;99.90;;;;;;5053137;28;20052;-80
2022/10/10 11:40:29;;;;;;;6.28;3.90;;;16.10;99.90;;;;;;5053481;28;20052;-81
2022/10/10 11:43:12;;;;;;;6.13;4.03;;;16.00;99.90;;;;;;5052944;28;20045;-80
2022/10/10 11:45:47;;;;;;;8.95;5.75;;;15.80;99.90;;;;;;5053754;28;20115;-81
2022/10/10 11:48:36;;;;;;;5.47;3.75;;;15.70;99.90;;;;;;5052751;28;20040;-82
2022/10/10 11:51:23;;;;;;;6.15;4.20;;;15.60;99.90;;;;;;5085209;28;20156;-79
2022/10/10 11:53:54;;;;;;;8.27;5.20;;;15.60;99.90;;;;;;5052923;28;20053;-81
2022/10/10 11:56:41;;;;;;;6.50;5.00;;;15.50;99.90;;;;;;5052772;28;20049;-78
2022/10/10 11:59:32;;;;;;;8.20;5.63;;;15.30;99.90;;;;;;5052701;28;20120;-79
2022/10/10 12:02:01;;;;;;;9.50;5.03;;;15.10;99.90;;;;;;5043364;28;20478;-79
2022/10/10 12:04:36;;;;;;;7.20;6.38;;;14.90;99.90;;;;;;5052789;28;20119;-77
2022/10/10 12:07:22;;;;;;;8.57;6.00;;;14.90;99.90;;;;;;5053038;28;20098;-77
2022/10/10 12:09:54;;;;;;;7.85;5.47;;;14.90;99.90;;;;;;5053683;28;20132;-78
2022/10/10 12:12:42;;;;;;;8.70;6.10;;;14.90;99.90;;;;;;5054120;28;20127;-77
2022/10/10 12:15:09;;;;;;;8.07;6.32;;;14.90;99.90;;;;;;5054427;28;20119;-80
2022/10/10 12:17:43;;;;;;;11.15;6.95;;;14.80;99.90;;;;;;5052686;28;20048;-80
2022/10/10 12:20:24;;;;;;;8.32;5.82;;;14.80;99.90;;;;;;5052392;28;20133;-80
2022/10/10 12:23:12;;;;;;;11.80;6.07;;;14.80;99.90;;;;;;5052483;28;20060;-82
2022/10/10 12:25:41;;;;;;;10.10;6.68;;;14.80;99.90;;;;;;5052418;28;20076;-79
2022/10/10 12:28:13;;;;;;;9.93;6.38;;;14.80;99.90;;;;;;5052890;28;20041;-78
2022/10/10 12:30:53;;;;;;;9.35;6.22;;;14.70;99.90;;;;;;5052228;28;20095;-79
2022/10/10 12:33:32;;;;;;;8.65;6.25;;;14.80;99.90;;;;;;5052254;28;20131;-79
2022/10/10 12:36:19;;;;;;;8.50;6.70;;;14.80;99.90;;;;;;5052612;28;20045;-79
2022/10/10 12:39:06;;;;;;;9.07;6.88;;;14.80;99.90;;;;;;5052255;28;20075;-80
2022/10/10 12:41:41;;;;;;;8.60;6.43;;;14.90;99.90;;;;;;5052532;28;20053;-79
2022/10/10 12:44:23;;;;;;;11.43;6.22;;;15.00;99.90;;;;;;5052339;28;20443;-75
2022/10/10 12:47:24;;;;;;;12.70;7.40;;;15.10;99.90;;;;;;5052486;28;20053;-79
2022/10/10 12:49:58;;;;;;;12.10;6.90;;;15.20;99.90;;;;;;5051959;28;20049;-79
2022/10/10 12:52:55;;;;;;;9.02;7.22;;;15.10;99.90;;;;;;5052024;28;20060;-79
2022/10/10 12:55:27;;;;;;;10.45;7.13;;;15.00;99.90;;;;;;5048650;28;20092;-80
2022/10/10 12:57:56;;;;;;;12.15;7.10;;;15.00;99.90;;;;;;5051626;28;20479;-78
2022/10/10 13:00:34;;;;;;;10.38;6.63;;;14.90;99.90;;;;;;5051862;28;20047;-79
2022/10/10 13:03:03;;;;;;;11.48;7.50;;;14.90;99.90;;;;;;5052038;28;20053;-78
2022/10/10 13:05:33;;;;;;;9.07;7.03;;;14.90;99.90;;;;;;5051727;28;20103;-80
2022/10/10 13:08:02;;;;;;;12.23;6.82;;;14.90;99.90;;;;;;5052039;28;20052;-79
2022/10/10 13:10:29;;;;;;;12.73;8.00;;;14.80;99.90;;;;;;5051749;28;20044;-79
2022/10/10 13:13:16;;;;;;;11.27;7.90;;;14.80;99.90;;;;;;5052393;28;20045;-79